Time;durP1;ratioP1;P1;durP2;ratioP2;P2;SDS_P1;SDS_P2;PMS_P1;PMS_P2;Temp;Humidity;BMP_temperature;BMP_pressure;BME280_temperature;BME280_humidity;BME280_pressure;Samples;Min_cycle;Max_cycle;Signal;HPM_P1;HPM_P2
2024/02/11 00:02:13;;;;;;;18.95;4.20;;;9.00;99.90;;;;;;5091411;28;20052;-62
2024/02/11 00:04:41;;;;;;;18.80;4.07;;;9.00;99.90;;;;;;5094326;28;20043;-62
2024/02/11 00:07:08;;;;;;;16.35;4.50;;;9.00;99.90;;;;;;5093562;28;20047;-62
2024/02/11 00:09:35;;;;;;;15.65;4.13;;;9.00;99.90;;;;;;5097006;28;20050;-62
2024/02/11 00:12:02;;;;;;;15.02;3.63;;;9.00;99.90;;;;;;5092485;28;20089;-62
2024/02/11 00:14:29;;;;;;;29.35;4.10;;;9.00;99.90;;;;;;5089770;28;20119;-62
2024/02/11 00:16:59;;;;;;;24.35;4.00;;;9.00;99.90;;;;;;5087899;28;20143;-63
2024/02/11 00:19:27;;;;;;;11.18;4.30;;;9.00;99.90;;;;;;5101510;28;20048;-61
2024/02/11 00:21:54;;;;;;;12.80;2.83;;;9.00;99.90;;;;;;5094583;28;20557;-61
2024/02/11 00:24:23;;;;;;;12.77;3.10;;;9.00;99.90;;;;;;5092291;28;20043;-61
2024/02/11 00:26:50;;;;;;;17.67;3.95;;;9.00;99.90;;;;;;5089768;28;20051;-61
2024/02/11 00:29:17;;;;;;;15.02;3.53;;;8.90;99.90;;;;;;5095369;28;20048;-61
2024/02/11 00:31:44;;;;;;;11.38;3.33;;;9.00;99.90;;;;;;5091562;28;20082;-61
2024/02/11 00:34:12;;;;;;;12.40;2.83;;;8.90;99.90;;;;;;5095328;28;20043;-61
2024/02/11 00:36:40;;;;;;;11.48;3.70;;;8.90;99.90;;;;;;5092732;28;20530;-61
2024/02/11 00:39:08;;;;;;;20.27;3.55;;;8.90;99.90;;;;;;5095542;28;20050;-62
2024/02/11 00:41:40;;;;;;;15.90;3.95;;;8.90;99.90;;;;;;5090233;28;20488;-61
2024/02/11 00:44:08;;;;;;;15.73;3.53;;;8.90;99.90;;;;;;5089598;28;20047;-61
2024/02/11 00:46:36;;;;;;;14.57;3.40;;;9.00;99.90;;;;;;5098140;28;20063;-61
2024/02/11 00:49:06;;;;;;;11.15;2.97;;;8.80;99.90;;;;;;5098329;28;20862;-62
2024/02/11 00:51:33;;;;;;;11.07;2.97;;;8.80;99.90;;;;;;5091165;28;20063;-61
2024/02/11 00:54:03;;;;;;;16.30;3.00;;;8.70;99.90;;;;;;5096543;28;20510;-62
2024/02/11 00:56:31;;;;;;;21.38;3.72;;;8.70;99.90;;;;;;5095755;28;20048;-61
2024/02/11 00:58:58;;;;;;;14.13;3.42;;;8.70;99.90;;;;;;5096843;28;20138;-61
2024/02/11 01:01:25;;;;;;;12.68;2.80;;;8.70;99.90;;;;;;5091895;28;20048;-61
2024/02/11 01:03:56;;;;;;;9.73;2.97;;;8.70;99.90;;;;;;5096851;28;20417;-61
2024/02/11 01:06:24;;;;;;;14.40;2.70;;;8.60;99.90;;;;;;5098041;28;20436;-61
2024/02/11 01:08:51;;;;;;;18.80;4.50;;;8.60;99.90;;;;;;5091354;28;20046;-60
2024/02/11 01:11:19;;;;;;;12.88;2.75;;;8.60;99.90;;;;;;5096142;28;20101;-61
2024/02/11 01:13:46;;;;;;;13.85;2.92;;;8.50;99.90;;;;;;5089773;28;20051;-61
2024/02/11 01:16:13;;;;;;;11.65;2.92;;;8.50;99.90;;;;;;5092674;28;20043;-61
2024/02/11 01:18:40;;;;;;;19.38;2.78;;;8.50;99.90;;;;;;5091045;28;20040;-61
2024/02/11 01:21:07;;;;;;;16.13;3.53;;;8.50;99.90;;;;;;5090539;28;20041;-61
2024/02/11 01:23:34;;;;;;;9.70;3.20;;;8.50;99.90;;;;;;5088931;28;20040;-61
2024/02/11 01:26:01;;;;;;;19.63;2.97;;;8.50;99.90;;;;;;5089158;28;20082;-61
2024/02/11 01:28:30;;;;;;;11.48;3.65;;;8.50;99.90;;;;;;5094854;28;20575;-61
2024/02/11 01:30:57;;;;;;;13.35;3.50;;;8.50;99.90;;;;;;5092731;28;20055;-61
2024/02/11 01:33:24;;;;;;;10.85;4.30;;;8.50;99.90;;;;;;5090849;28;20500;-63
2024/02/11 01:35:51;;;;;;;11.07;2.95;;;8.50;99.90;;;;;;5090148;28;20548;-61
2024/02/11 01:38:18;;;;;;;14.63;2.58;;;8.40;99.90;;;;;;5075428;28;20055;-61
2024/02/11 01:40:45;;;;;;;10.50;3.03;;;8.40;99.90;;;;;;5088813;28;20139;-62
2024/02/11 01:43:12;;;;;;;11.27;3.20;;;8.40;99.90;;;;;;5091892;28;20123;-62
2024/02/11 01:45:39;;;;;;;9.68;2.70;;;8.40;99.90;;;;;;5094082;28;20050;-62
2024/02/11 01:48:08;;;;;;;9.60;3.03;;;8.50;99.90;;;;;;5088502;28;20154;-62
2024/02/11 01:50:36;;;;;;;13.55;4.00;;;8.50;99.90;;;;;;5092563;28;20567;-61
2024/02/11 01:53:03;;;;;;;13.70;4.13;;;8.40;99.90;;;;;;5090213;28;20051;-61
2024/02/11 01:55:31;;;;;;;12.27;3.22;;;8.50;99.90;;;;;;5088148;28;20048;-62
2024/02/11 01:57:58;;;;;;;17.05;3.65;;;8.50;99.90;;;;;;5088725;28;20048;-61
2024/02/11 02:00:25;;;;;;;10.05;3.08;;;8.50;99.90;;;;;;5088311;28;20040;-62
2024/02/11 02:02:54;;;;;;;11.55;3.05;;;8.40;99.90;;;;;;5087724;28;20104;-63
2024/02/11 02:05:21;;;;;;;9.75;3.30;;;8.40;99.90;;;;;;5088397;28;20036;-62
2024/02/11 02:07:48;;;;;;;11.43;4.32;;;8.40;99.90;;;;;;5088438;28;20051;-61
2024/02/11 02:10:15;;;;;;;17.70;2.90;;;8.50;99.90;;;;;;5093345;28;20109;-62
2024/02/11 02:12:42;;;;;;;13.73;3.10;;;8.50;99.90;;;;;;5088105;28;20104;-62
2024/02/11 02:15:09;;;;;;;18.63;3.40;;;8.50;99.90;;;;;;5094842;28;20577;-62
2024/02/11 02:17:36;;;;;;;6.82;3.00;;;8.50;99.90;;;;;;5091521;28;20052;-62
2024/02/11 02:20:04;;;;;;;9.73;2.83;;;8.50;99.90;;;;;;5092291;28;20044;-61
2024/02/11 02:22:31;;;;;;;8.45;2.90;;;8.50;99.90;;;;;;5095953;28;20052;-62
2024/02/11 02:24:58;;;;;;;16.77;2.90;;;8.50;99.90;;;;;;5089048;28;20120;-61
2024/02/11 02:27:25;;;;;;;11.20;2.97;;;8.50;99.90;;;;;;5093389;28;20124;-62
2024/02/11 02:29:52;;;;;;;16.95;3.45;;;8.50;99.90;;;;;;5092929;28;20088;-62
2024/02/11 02:32:18;;;;;;;10.82;3.53;;;8.40;99.90;;;;;;5095101;28;20461;-62
2024/02/11 02:34:46;;;;;;;15.00;4.30;;;8.50;99.90;;;;;;5088671;28;20070;-62
2024/02/11 02:37:13;;;;;;;8.00;3.55;;;8.50;99.90;;;;;;5098660;28;20087;-62
2024/02/11 02:39:40;;;;;;;9.57;3.22;;;8.50;99.90;;;;;;5100035;28;20044;-62
2024/02/11 02:42:08;;;;;;;17.17;2.95;;;8.50;99.90;;;;;;5090924;28;20525;-62
2024/02/11 02:44:37;;;;;;;10.63;2.88;;;8.50;99.90;;;;;;5096547;28;20056;-61
2024/02/11 02:47:04;;;;;;;13.73;3.88;;;8.50;99.90;;;;;;5096451;28;20131;-62
2024/02/11 02:49:32;;;;;;;11.88;3.30;;;8.50;99.90;;;;;;5093534;28;20126;-61
2024/02/11 02:52:01;;;;;;;11.38;3.63;;;8.50;99.90;;;;;;5086457;28;20059;-62
2024/02/11 02:54:28;;;;;;;16.60;4.32;;;8.40;99.90;;;;;;5089723;28;20055;-62
2024/02/11 02:56:55;;;;;;;10.82;3.20;;;8.40;99.90;;;;;;5087944;28;20126;-62
2024/02/11 02:59:22;;;;;;;9.77;3.63;;;8.40;99.90;;;;;;5094124;28;20409;-61
2024/02/11 03:01:49;;;;;;;13.00;4.30;;;8.40;99.90;;;;;;5100180;28;20559;-61
2024/02/11 03:04:16;;;;;;;12.95;4.05;;;8.50;99.90;;;;;;5088339;28;20057;-62
2024/02/11 03:06:43;;;;;;;13.48;3.28;;;8.50;99.90;;;;;;5098812;28;20055;-62
2024/02/11 03:09:10;;;;;;;10.27;3.25;;;8.50;99.90;;;;;;5101344;28;20075;-62
2024/02/11 03:11:41;;;;;;;10.40;3.33;;;8.40;99.90;;;;;;5097047;28;20050;-61
2024/02/11 03:14:08;;;;;;;9.20;3.90;;;8.40;99.90;;;;;;5099672;28;20048;-62
2024/02/11 03:16:35;;;;;;;9.95;3.65;;;8.50;99.90;;;;;;5100249;28;20043;-62
2024/02/11 03:19:05;;;;;;;10.70;4.40;;;8.40;99.90;;;;;;5103188;28;20045;-61
2024/02/11 03:21:33;;;;;;;15.05;3.88;;;8.40;99.90;;;;;;5096781;28;20043;-62
2024/02/11 03:24:04;;;;;;;17.00;3.88;;;8.30;99.90;;;;;;5092561;28;20058;-61
2024/02/11 03:26:31;;;;;;;16.15;4.57;;;8.30;99.90;;;;;;5094784;28;20139;-61
2024/02/11 03:29:00;;;;;;;12.98;4.53;;;8.30;99.90;;;;;;5097634;28;20171;-61
2024/02/11 03:31:27;;;;;;;11.40;4.57;;;8.40;99.90;;;;;;5102104;28;20119;-61
2024/02/11 03:33:54;;;;;;;9.88;4.03;;;8.40;99.90;;;;;;5099570;28;20044;-61
2024/02/11 03:36:21;;;;;;;18.02;4.03;;;8.40;99.90;;;;;;5093723;28;20522;-63
2024/02/11 03:38:48;;;;;;;7.75;4.57;;;8.40;99.90;;;;;;5100201;28;20624;-62
2024/02/11 03:41:16;;;;;;;13.75;5.65;;;8.40;99.90;;;;;;5101941;28;20294;-62
2024/02/11 03:43:43;;;;;;;12.43;4.53;;;8.50;99.90;;;;;;5095204;28;20040;-62
2024/02/11 03:46:10;;;;;;;13.50;4.85;;;8.50;99.90;;;;;;5104044;28;20058;-62
2024/02/11 03:48:37;;;;;;;14.60;4.38;;;8.50;99.90;;;;;;5100859;28;20057;-62
2024/02/11 03:51:06;;;;;;;11.75;4.90;;;8.50;99.90;;;;;;5097746;28;20047;-60
2024/02/11 03:53:34;;;;;;;11.48;5.07;;;8.50;99.90;;;;;;5094765;28;20382;-62
2024/02/11 03:56:05;;;;;;;12.95;4.15;;;8.40;99.90;;;;;;5103836;28;20069;-62
2024/02/11 03:58:34;;;;;;;12.27;4.90;;;8.40;99.90;;;;;;5092881;28;20354;-63
2024/02/11 04:01:01;;;;;;;15.93;3.72;;;8.40;99.90;;;;;;5098508;28;20050;-61
2024/02/11 04:03:28;;;;;;;15.05;4.82;;;8.40;99.90;;;;;;5099996;28;20272;-61
2024/02/11 04:05:55;;;;;;;16.02;4.43;;;8.30;99.90;;;;;;5098674;28;20100;-62
2024/02/11 04:08:24;;;;;;;16.35;5.18;;;8.40;99.90;;;;;;5104560;28;20044;-62
2024/02/11 04:10:53;;;;;;;11.82;4.65;;;8.30;99.90;;;;;;5098357;28;20131;-61
2024/02/11 04:13:24;;;;;;;14.65;4.82;;;8.40;99.90;;;;;;5099882;28;20039;-61
2024/02/11 04:15:56;;;;;;;11.70;5.05;;;8.40;99.90;;;;;;5096652;28;20096;-61
2024/02/11 04:18:23;;;;;;;14.27;5.18;;;8.40;99.90;;;;;;5098865;28;20524;-61
2024/02/11 04:20:52;;;;;;;19.48;4.47;;;8.40;99.90;;;;;;5089188;28;20043;-61
2024/02/11 04:23:19;;;;;;;10.93;3.90;;;8.30;99.90;;;;;;5097730;28;20087;-61
2024/02/11 04:25:47;;;;;;;17.17;5.15;;;8.20;99.90;;;;;;5097028;28;20108;-61
2024/02/11 04:28:13;;;;;;;13.88;4.28;;;8.20;99.90;;;;;;5100187;28;20182;-61
2024/02/11 04:30:42;;;;;;;16.10;5.68;;;8.20;99.90;;;;;;5094956;28;20047;-61
2024/02/11 04:33:14;;;;;;;16.77;5.72;;;8.20;99.90;;;;;;5097575;28;20993;-61
2024/02/11 04:35:42;;;;;;;14.15;4.00;;;8.20;99.90;;;;;;5091775;28;20040;-61
2024/02/11 04:38:12;;;;;;;12.50;4.95;;;8.20;99.90;;;;;;5094747;28;20139;-61
2024/02/11 04:40:40;;;;;;;10.85;4.40;;;8.20;99.90;;;;;;5099625;28;20464;-61
2024/02/11 04:43:07;;;;;;;15.52;5.47;;;8.30;99.90;;;;;;5095195;28;20521;-61
2024/02/11 04:45:37;;;;;;;19.10;4.45;;;8.30;99.90;;;;;;5094260;28;20051;-61
2024/02/11 04:48:04;;;;;;;21.83;6.15;;;8.30;99.90;;;;;;5098404;28;20146;-61
2024/02/11 04:50:32;;;;;;;13.75;5.50;;;8.30;99.90;;;;;;5098116;28;20039;-61
2024/02/11 04:53:02;;;;;;;10.82;3.83;;;8.30;99.90;;;;;;5100893;28;20059;-60
2024/02/11 04:55:40;;;;;;;15.48;4.30;;;8.30;99.90;;;;;;5098127;28;20126;-62
2024/02/11 04:58:14;;;;;;;12.57;4.00;;;8.30;99.90;;;;;;5092292;28;20223;-62
2024/02/11 05:00:48;;;;;;;15.00;4.75;;;8.30;99.90;;;;;;5093966;28;20070;-62
2024/02/11 05:03:17;;;;;;;7.88;3.58;;;8.30;99.90;;;;;;5089918;28;20048;-62
2024/02/11 05:05:47;;;;;;;13.65;3.70;;;8.20;99.90;;;;;;5091779;28;20503;-62
2024/02/11 05:08:17;;;;;;;16.08;5.00;;;8.30;99.90;;;;;;5097180;28;20504;-62
2024/02/11 05:10:44;;;;;;;13.13;4.43;;;8.20;99.90;;;;;;5099578;27;20576;-61
2024/02/11 05:13:12;;;;;;;12.68;4.10;;;8.20;99.90;;;;;;5094735;28;20048;-61
2024/02/11 05:15:40;;;;;;;20.50;4.70;;;8.20;99.90;;;;;;5098762;28;20047;-64
2024/02/11 05:18:11;;;;;;;10.65;4.38;;;8.20;99.90;;;;;;5095342;28;20059;-60
2024/02/11 05:20:39;;;;;;;9.63;4.30;;;8.20;99.90;;;;;;5095087;28;20052;-60
2024/02/11 05:23:09;;;;;;;17.55;4.63;;;8.20;99.90;;;;;;5094852;28;20051;-61
2024/02/11 05:25:38;;;;;;;13.35;4.25;;;8.20;99.90;;;;;;5087264;28;20133;-61
2024/02/11 05:28:09;;;;;;;13.48;4.22;;;8.20;99.90;;;;;;5097967;28;20241;-61
2024/02/11 05:30:38;;;;;;;15.18;4.35;;;8.20;99.90;;;;;;5088805;28;20063;-61
2024/02/11 05:33:08;;;;;;;14.70;4.43;;;8.20;99.90;;;;;;5097058;28;20054;-61
2024/02/11 05:35:37;;;;;;;11.32;4.68;;;8.20;99.90;;;;;;5103111;28;20054;-61
2024/02/11 05:38:06;;;;;;;11.93;4.28;;;8.20;99.90;;;;;;5091394;28;20401;-61
2024/02/11 05:40:56;;;;;;;8.75;3.58;;;8.20;99.90;;;;;;5097570;28;20039;-60
2024/02/11 05:43:25;;;;;;;12.85;3.95;;;8.20;99.90;;;;;;5093069;28;20044;-61
2024/02/11 05:45:53;;;;;;;10.27;3.30;;;8.30;99.90;;;;;;5087042;28;20208;-61
2024/02/11 05:48:20;;;;;;;11.27;4.93;;;8.30;99.90;;;;;;5093711;28;20787;-62
2024/02/11 05:50:47;;;;;;;14.18;4.13;;;8.30;99.90;;;;;;5094900;28;20054;-61
2024/02/11 05:53:14;;;;;;;11.27;4.43;;;8.30;99.90;;;;;;5092554;28;20069;-61
2024/02/11 05:55:41;;;;;;;9.07;3.55;;;8.20;99.90;;;;;;5100511;28;20050;-61
2024/02/11 05:58:08;;;;;;;13.48;4.28;;;8.20;99.90;;;;;;5099690;28;20047;-62
2024/02/11 06:00:36;;;;;;;12.25;3.78;;;8.30;99.90;;;;;;5097551;28;20048;-61
2024/02/11 06:03:04;;;;;;;12.98;4.20;;;8.20;99.90;;;;;;5093636;28;20352;-61
2024/02/11 06:05:30;;;;;;;10.45;4.32;;;8.30;99.90;;;;;;5099446;28;20066;-61
2024/02/11 06:08:01;;;;;;;14.18;5.00;;;8.30;99.90;;;;;;5100485;28;20097;-61
2024/02/11 06:10:30;;;;;;;10.00;3.78;;;8.30;99.90;;;;;;5086928;28;20662;-61
2024/02/11 06:12:57;;;;;;;15.07;3.80;;;8.30;99.90;;;;;;5086223;28;20051;-61
2024/02/11 06:15:28;;;;;;;17.77;4.70;;;8.30;99.90;;;;;;5094894;28;20044;-60
2024/02/11 06:18:01;;;;;;;17.13;6.15;;;8.30;99.90;;;;;;5093459;28;20047;-61
2024/02/11 06:20:29;;;;;;;23.27;4.22;;;8.30;99.90;;;;;;5098554;28;20496;-61
2024/02/11 06:22:57;;;;;;;10.68;4.55;;;8.20;99.90;;;;;;5093525;28;20424;-60
2024/02/11 06:25:24;;;;;;;8.73;3.85;;;8.20;99.90;;;;;;5094475;28;20266;-60
2024/02/11 06:27:51;;;;;;;13.65;4.97;;;8.20;99.90;;;;;;5093615;28;20043;-60
2024/02/11 06:30:19;;;;;;;15.60;5.10;;;8.20;99.90;;;;;;5096406;28;20147;-61
2024/02/11 06:32:50;;;;;;;17.83;4.70;;;8.20;99.90;;;;;;5115690;27;20135;-60
2024/02/11 06:35:19;;;;;;;9.73;4.22;;;8.20;99.90;;;;;;5092217;28;20040;-60
2024/02/11 06:37:48;;;;;;;16.42;6.00;;;8.30;99.90;;;;;;5099755;28;20134;-63
2024/02/11 06:40:16;;;;;;;11.25;4.80;;;8.30;99.90;;;;;;5094758;28;20044;-61
2024/02/11 06:42:43;;;;;;;16.92;5.20;;;8.30;99.90;;;;;;5087678;28;20043;-61
2024/02/11 06:45:12;;;;;;;11.07;5.07;;;8.40;99.90;;;;;;5088650;28;20097;-60
2024/02/11 06:47:40;;;;;;;15.52;4.63;;;8.30;99.90;;;;;;5083769;28;20530;-61
2024/02/11 06:50:08;;;;;;;16.23;4.88;;;8.30;99.90;;;;;;5079173;28;20326;-61
2024/02/11 06:52:36;;;;;;;10.15;3.97;;;8.30;99.90;;;;;;5090518;28;20052;-61
2024/02/11 06:55:04;;;;;;;19.60;4.70;;;8.30;99.90;;;;;;5096668;28;20054;-61
2024/02/11 06:57:34;;;;;;;19.75;4.53;;;8.30;99.90;;;;;;5099819;28;20235;-61
2024/02/11 07:00:02;;;;;;;12.18;4.18;;;8.30;99.90;;;;;;5092694;28;20505;-60
2024/02/11 07:02:34;;;;;;;17.65;4.05;;;8.30;99.90;;;;;;5090602;28;20053;-61
2024/02/11 07:05:01;;;;;;;21.30;4.30;;;8.30;99.90;;;;;;5095090;28;20632;-61
2024/02/11 07:07:28;;;;;;;13.50;4.65;;;8.30;99.90;;;;;;5094803;28;20044;-60
2024/02/11 07:09:55;;;;;;;13.73;4.57;;;8.20;99.90;;;;;;5097093;28;20044;-61
2024/02/11 07:12:22;;;;;;;11.52;5.00;;;8.30;99.90;;;;;;5089874;28;20082;-62
2024/02/11 07:14:50;;;;;;;13.15;4.75;;;8.30;99.90;;;;;;5096676;28;20067;-62
2024/02/11 07:17:19;;;;;;;8.90;4.72;;;8.30;99.90;;;;;;5092476;28;20052;-61
2024/02/11 07:19:48;;;;;;;14.52;4.97;;;8.30;99.90;;;;;;5100450;28;20082;-61
2024/02/11 07:22:18;;;;;;;12.85;4.88;;;8.20;99.90;;;;;;5090571;28;20082;-61
2024/02/11 07:24:45;;;;;;;14.20;5.00;;;8.20;99.90;;;;;;5091666;28;20120;-61
2024/02/11 07:27:14;;;;;;;14.45;5.97;;;8.10;99.90;;;;;;5098571;28;20476;-62
2024/02/11 07:29:43;;;;;;;8.90;5.43;;;8.10;99.90;;;;;;5095813;28;20116;-61
2024/02/11 07:32:10;;;;;;;10.75;5.47;;;8.10;99.90;;;;;;5086855;28;20093;-61
2024/02/11 07:34:41;;;;;;;12.30;5.82;;;8.10;99.90;;;;;;5091004;28;20101;-61
2024/02/11 07:37:08;;;;;;;16.55;7.43;;;8.20;99.90;;;;;;5088456;28;20242;-61
2024/02/11 07:39:35;;;;;;;14.02;6.68;;;8.20;99.90;;;;;;5099249;28;20484;-61
2024/02/11 07:42:02;;;;;;;20.05;6.97;;;8.20;99.90;;;;;;5089965;28;20150;-60
2024/02/11 07:44:29;;;;;;;19.42;7.28;;;8.20;99.90;;;;;;5090735;28;20054;-60
2024/02/11 07:46:57;;;;;;;13.05;5.60;;;8.20;99.90;;;;;;5098537;28;20055;-61
2024/02/11 07:49:25;;;;;;;12.32;5.93;;;8.20;99.90;;;;;;5094858;28;20040;-61
2024/02/11 07:51:54;;;;;;;17.23;6.50;;;8.20;99.90;;;;;;5093933;28;20060;-60
2024/02/11 07:54:31;;;;;;;21.35;7.63;;;8.10;99.90;;;;;;5095745;28;20108;-62
2024/02/11 07:57:01;;;;;;;21.30;7.25;;;8.20;99.90;;;;;;5096686;28;20086;-61
2024/02/11 07:59:33;;;;;;;17.13;6.97;;;8.10;99.90;;;;;;5091945;28;20123;-62
2024/02/11 08:02:00;;;;;;;21.52;7.22;;;8.10;99.90;;;;;;5091206;28;20079;-61
2024/02/11 08:04:27;;;;;;;19.73;7.90;;;8.10;99.90;;;;;;5093177;28;20120;-61
2024/02/11 08:06:54;;;;;;;16.70;6.75;;;8.10;99.90;;;;;;5094133;28;20922;-61
2024/02/11 08:09:21;;;;;;;19.98;6.43;;;8.20;99.90;;;;;;5097899;28;20488;-61
2024/02/11 08:11:48;;;;;;;18.10;7.70;;;8.30;99.90;;;;;;5092529;28;20520;-61
2024/02/11 08:14:19;;;;;;;19.15;8.95;;;8.20;99.90;;;;;;5091702;28;20499;-61
2024/02/11 08:16:46;;;;;;;16.80;6.75;;;8.30;99.90;;;;;;5098795;28;20138;-61
2024/02/11 08:19:14;;;;;;;18.67;7.40;;;8.20;99.90;;;;;;5093182;28;20531;-61
2024/02/11 08:21:41;;;;;;;16.95;7.65;;;8.20;99.90;;;;;;5093517;28;20568;-62
2024/02/11 08:24:08;;;;;;;14.13;6.55;;;8.20;99.90;;;;;;5090939;28;20043;-61
2024/02/11 08:26:35;;;;;;;15.32;6.95;;;8.20;99.90;;;;;;5100638;28;20231;-60
2024/02/11 08:29:03;;;;;;;16.88;6.05;;;8.20;99.90;;;;;;5091687;28;20047;-61
2024/02/11 08:31:30;;;;;;;13.95;6.68;;;8.20;99.90;;;;;;5097645;27;20145;-61
2024/02/11 08:33:57;;;;;;;18.08;5.68;;;8.20;99.90;;;;;;5098522;28;20109;-61
2024/02/11 08:36:25;;;;;;;14.45;6.05;;;8.20;99.90;;;;;;5099021;28;20547;-60
2024/02/11 08:38:51;;;;;;;16.05;7.88;;;8.20;99.90;;;;;;5095653;28;20510;-60
2024/02/11 08:41:19;;;;;;;12.25;6.55;;;8.30;99.90;;;;;;5095696;28;20051;-61
2024/02/11 08:43:47;;;;;;;9.40;5.25;;;8.30;99.90;;;;;;5095864;28;20055;-62
2024/02/11 08:46:14;;;;;;;10.10;5.57;;;8.20;99.90;;;;;;5095358;28;20178;-63
2024/02/11 08:48:42;;;;;;;10.27;5.88;;;8.20;99.90;;;;;;5097195;28;20043;-60
2024/02/11 08:51:15;;;;;;;11.95;6.50;;;8.20;99.90;;;;;;5097723;28;20077;-61
2024/02/11 08:53:42;;;;;;;12.13;6.60;;;8.30;99.90;;;;;;5092965;28;20100;-61
2024/02/11 08:56:09;;;;;;;13.68;7.35;;;8.30;99.90;;;;;;5101967;28;20048;-60
2024/02/11 08:58:37;;;;;;;12.35;5.63;;;8.30;99.90;;;;;;5089202;28;20035;-61
2024/02/11 09:01:05;;;;;;;16.75;7.78;;;8.40;99.90;;;;;;5093222;28;20108;-61
2024/02/11 09:03:32;;;;;;;13.93;7.22;;;8.40;99.90;;;;;;5094055;28;20044;-60
2024/02/11 09:06:00;;;;;;;12.05;7.80;;;8.40;99.90;;;;;;5097448;28;20129;-61
2024/02/11 09:08:27;;;;;;;12.13;7.00;;;8.40;99.90;;;;;;5098318;28;20043;-61
2024/02/11 09:10:54;;;;;;;17.90;7.90;;;8.40;99.90;;;;;;5095234;28;20127;-61
2024/02/11 09:13:22;;;;;;;13.55;6.97;;;8.50;99.90;;;;;;5096638;28;20055;-61
2024/02/11 09:15:49;;;;;;;15.20;7.40;;;8.50;99.90;;;;;;5098818;28;20126;-61
2024/02/11 09:18:19;;;;;;;15.13;7.85;;;8.50;99.90;;;;;;5095695;28;20055;-61
2024/02/11 09:20:47;;;;;;;14.55;8.18;;;8.60;99.90;;;;;;5094606;28;20047;-61
2024/02/11 09:23:13;;;;;;;28.63;9.15;;;8.60;99.90;;;;;;5091052;28;20129;-61
2024/02/11 09:25:42;;;;;;;21.58;8.70;;;8.60;99.90;;;;;;5101691;28;20043;-61
2024/02/11 09:28:10;;;;;;;16.58;9.15;;;8.60;99.90;;;;;;5097932;28;20394;-61
2024/02/11 09:30:42;;;;;;;33.38;18.67;;;8.60;99.90;;;;;;5093972;28;20054;-61
2024/02/11 09:33:09;;;;;;;15.73;8.32;;;8.60;99.90;;;;;;5094798;28;20055;-61
2024/02/11 09:35:37;;;;;;;15.68;7.32;;;8.60;99.90;;;;;;5095793;28;20044;-61
2024/02/11 09:38:05;;;;;;;19.35;7.40;;;8.60;99.90;;;;;;5092648;28;20100;-60
2024/02/11 09:40:33;;;;;;;16.95;6.88;;;8.60;99.90;;;;;;5096659;28;20113;-60
2024/02/11 09:43:00;;;;;;;13.63;7.13;;;8.60;99.90;;;;;;5099074;28;20295;-61
2024/02/11 09:45:27;;;;;;;20.23;7.82;;;8.60;99.90;;;;;;5090711;28;20077;-62
2024/02/11 09:47:54;;;;;;;21.40;7.25;;;8.60;99.90;;;;;;5090144;28;20125;-60
2024/02/11 09:50:21;;;;;;;21.50;7.63;;;8.70;99.90;;;;;;5089628;28;20511;-60
2024/02/11 09:52:49;;;;;;;14.73;8.65;;;8.70;99.90;;;;;;5095130;28;20048;-59
2024/02/11 09:55:19;;;;;;;22.70;9.93;;;8.80;99.90;;;;;;5089592;28;20122;-61
2024/02/11 09:57:46;;;;;;;29.15;10.85;;;8.80;99.90;;;;;;5097996;28;20048;-62
2024/02/11 10:00:14;;;;;;;25.05;8.88;;;8.80;99.90;;;;;;5096257;28;20058;-62
2024/02/11 10:02:42;;;;;;;21.45;9.75;;;8.80;99.90;;;;;;5091028;28;20043;-61
2024/02/11 10:05:10;;;;;;;18.75;9.95;;;8.90;99.90;;;;;;5089435;28;20060;-61
2024/02/11 10:07:41;;;;;;;28.40;9.95;;;8.90;99.90;;;;;;5093342;28;20483;-61
2024/02/11 10:10:08;;;;;;;18.90;8.68;;;9.00;99.90;;;;;;5092482;28;20050;-62
2024/02/11 10:12:35;;;;;;;26.00;9.13;;;9.00;99.90;;;;;;5095011;28;20043;-61
2024/02/11 10:15:03;;;;;;;26.08;10.32;;;9.10;99.90;;;;;;5087180;28;20060;-59
2024/02/11 10:17:31;;;;;;;20.58;10.10;;;9.20;99.90;;;;;;5098281;28;20044;-62
2024/02/11 10:19:59;;;;;;;19.77;8.95;;;9.30;99.90;;;;;;5098560;28;20047;-62
2024/02/11 10:22:27;;;;;;;23.08;8.82;;;9.40;99.90;;;;;;5093094;28;20063;-61
2024/02/11 10:24:56;;;;;;;17.85;8.25;;;9.50;99.90;;;;;;5091923;28;20385;-62
2024/02/11 10:27:24;;;;;;;29.58;9.93;;;9.40;99.90;;;;;;5091237;28;20150;-62
2024/02/11 10:29:51;;;;;;;23.52;9.57;;;9.40;99.90;;;;;;5089833;28;20101;-62
2024/02/11 10:32:18;;;;;;;25.02;11.45;;;9.40;99.90;;;;;;5094176;28;20059;-62
2024/02/11 10:34:46;;;;;;;18.42;8.85;;;9.30;99.90;;;;;;5095522;28;20051;-62
2024/02/11 10:37:14;;;;;;;27.05;13.40;;;9.30;99.90;;;;;;5091349;28;20054;-61
2024/02/11 10:39:42;;;;;;;18.75;10.15;;;9.30;99.90;;;;;;5096428;28;20166;-61
2024/02/11 10:42:10;;;;;;;20.52;10.55;;;9.30;99.90;;;;;;5085817;28;20048;-62
2024/02/11 10:44:38;;;;;;;26.88;11.00;;;9.30;99.90;;;;;;5094807;28;20051;-61
2024/02/11 10:47:08;;;;;;;23.55;9.63;;;9.40;99.90;;;;;;5095707;28;20050;-61
2024/02/11 10:49:35;;;;;;;27.90;12.55;;;9.50;99.90;;;;;;5099428;28;20048;-61
2024/02/11 10:52:12;;;;;;;28.67;12.00;;;9.50;99.90;;;;;;5089949;28;20051;-62
2024/02/11 10:54:43;;;;;;;17.25;8.38;;;9.60;99.90;;;;;;5094979;28;20253;-62
2024/02/11 10:57:19;;;;;;;31.35;13.38;;;9.50;99.90;;;;;;5096433;28;20091;-62
2024/02/11 10:59:58;;;;;;;22.65;10.38;;;9.60;99.90;;;;;;5090960;28;20048;-61
2024/02/11 11:02:27;;;;;;;23.23;11.43;;;9.60;99.90;;;;;;5091308;28;20105;-60
2024/02/11 11:04:55;;;;;;;26.10;10.50;;;9.60;99.90;;;;;;5088927;28;20067;-60
2024/02/11 11:07:23;;;;;;;28.27;10.55;;;9.60;99.90;;;;;;5081731;28;20044;-62
2024/02/11 11:09:50;;;;;;;23.20;8.88;;;9.60;99.90;;;;;;5090881;28;20659;-62
2024/02/11 11:12:17;;;;;;;23.13;10.65;;;9.70;99.90;;;;;;5091664;28;20097;-62
2024/02/11 11:14:45;;;;;;;17.15;8.95;;;9.80;99.90;;;;;;5090531;28;20059;-60
2024/02/11 11:17:24;;;;;;;23.73;10.60;;;10.00;99.90;;;;;;5096447;28;20173;-62
2024/02/11 11:19:52;;;;;;;21.23;8.45;;;10.00;99.90;;;;;;5101685;27;20128;-61
2024/02/11 11:22:28;;;;;;;21.20;7.00;;;10.00;99.90;;;;;;5093772;28;20048;-63
2024/02/11 11:24:56;;;;;;;18.10;7.88;;;9.90;99.90;;;;;;5094002;28;20074;-62
2024/02/11 11:27:23;;;;;;;32.13;12.82;;;9.90;99.90;;;;;;5101743;28;20171;-61
2024/02/11 11:29:52;;;;;;;24.55;8.88;;;10.00;99.90;;;;;;5098933;28;20242;-62
2024/02/11 11:32:22;;;;;;;25.58;8.10;;;10.10;99.90;;;;;;5099344;28;20066;-62
2024/02/11 11:34:53;;;;;;;19.83;9.20;;;10.10;99.90;;;;;;5094735;28;20100;-63
2024/02/11 11:37:20;;;;;;;22.02;7.43;;;10.10;99.90;;;;;;5097455;28;20054;-61
2024/02/11 11:39:48;;;;;;;27.70;8.18;;;10.20;99.90;;;;;;5092407;28;20043;-62
2024/02/11 11:42:16;;;;;;;22.83;7.30;;;10.20;99.90;;;;;;5095077;28;20126;-61
2024/02/11 11:44:43;;;;;;;25.27;6.93;;;10.20;99.90;;;;;;5095095;28;20073;-61
2024/02/11 11:47:13;;;;;;;17.45;7.93;;;10.20;99.90;;;;;;5101164;28;20052;-62
2024/02/11 11:49:41;;;;;;;22.77;7.55;;;10.40;99.90;;;;;;5093984;28;20066;-62
2024/02/11 11:52:08;;;;;;;14.30;5.22;;;10.30;99.90;;;;;;5093887;28;20058;-62
2024/02/11 11:54:35;;;;;;;15.95;6.10;;;10.40;99.90;;;;;;5096369;28;20520;-62
2024/02/11 11:57:05;;;;;;;20.38;6.03;;;10.40;99.90;;;;;;5099133;28;20047;-62
2024/02/11 11:59:32;;;;;;;18.67;6.05;;;10.50;99.90;;;;;;5097340;28;20044;-60
2024/02/11 12:01:59;;;;;;;19.20;6.70;;;10.50;99.90;;;;;;5101331;28;20070;-60
2024/02/11 12:04:26;;;;;;;19.05;6.07;;;10.50;99.90;;;;;;5091793;28;20084;-61
2024/02/11 12:06:53;;;;;;;17.17;5.03;;;10.60;99.90;;;;;;5099143;28;20047;-61
2024/02/11 12:09:20;;;;;;;17.85;6.82;;;10.60;99.90;;;;;;5100417;28;20760;-60
2024/02/11 12:11:48;;;;;;;21.08;5.95;;;10.60;99.90;;;;;;5094454;28;20043;-60
2024/02/11 12:14:15;;;;;;;21.10;5.47;;;10.60;99.90;;;;;;5101513;28;20126;-60
2024/02/11 12:16:43;;;;;;;24.45;6.55;;;10.60;99.90;;;;;;5096407;28;20456;-61
2024/02/11 12:19:10;;;;;;;19.17;4.88;;;10.60;99.90;;;;;;5103889;27;20055;-61
2024/02/11 12:21:37;;;;;;;20.48;5.55;;;10.60;99.90;;;;;;5101550;28;20048;-61
2024/02/11 12:24:05;;;;;;;14.93;4.57;;;10.70;99.90;;;;;;5093198;28;20061;-61
2024/02/11 12:26:32;;;;;;;17.52;4.30;;;10.70;99.90;;;;;;5100319;28;20462;-61
2024/02/11 12:28:59;;;;;;;18.55;5.40;;;10.70;99.90;;;;;;5098039;28;20062;-61
2024/02/11 12:31:27;;;;;;;18.98;5.07;;;10.60;99.90;;;;;;5095608;28;20099;-60
2024/02/11 12:33:54;;;;;;;26.20;5.50;;;10.50;99.90;;;;;;5098454;28;20732;-61
2024/02/11 12:36:23;;;;;;;12.30;4.38;;;10.50;99.90;;;;;;5100449;28;20047;-60
2024/02/11 12:38:51;;;;;;;23.25;7.53;;;10.50;99.90;;;;;;5103543;28;20137;-61
2024/02/11 12:41:19;;;;;;;23.60;5.60;;;10.50;99.90;;;;;;5097494;28;20047;-61
2024/02/11 12:43:47;;;;;;;16.83;4.18;;;10.60;99.90;;;;;;5098419;28;20084;-60
2024/02/11 12:46:14;;;;;;;22.25;5.75;;;10.70;99.90;;;;;;5093957;28;20152;-60
2024/02/11 12:48:42;;;;;;;17.75;4.38;;;10.70;99.90;;;;;;5094185;28;20477;-60
2024/02/11 12:51:11;;;;;;;20.45;5.78;;;10.60;99.90;;;;;;5087990;28;20048;-60